Time;durP1;ratioP1;P1;durP2;ratioP2;P2;SDS_P1;SDS_P2;PMS_P1;PMS_P2;Temp;Humidity;BMP_temperature;BMP_pressure;BME280_temperature;BME280_humidity;BME280_pressure;Samples;Min_cycle;Max_cycle;Signal;HPM_P1;HPM_P2
2022/01/27 00:05:20;;;;;;;30.23;18.07;;;;;;;;;;5054459;28;20284;-57
2022/01/27 00:08:36;;;;;;;32.90;17.93;;;;;;;;;;5062963;28;20299;-57
2022/01/27 00:13:45;;;;;;;31.17;18.27;;;;;;;;;;4975397;28;20183;-57
2022/01/27 00:16:15;;;;;;;31.10;18.23;;;;;;;;;;5068358;28;20516;-57
2022/01/27 00:18:46;;;;;;;28.50;19.23;;;;;;;;;;5062664;28;20310;-57
2022/01/27 00:21:15;;;;;;;28.07;18.23;;;;;;;;;;5069277;28;20180;-57
2022/01/27 00:23:41;;;;;;;32.67;18.70;;;;;;;;;;5077870;28;20549;-57
2022/01/27 00:26:08;;;;;;;26.17;16.97;;;;;;;;;;5083075;28;20231;-56
2022/01/27 00:28:34;;;;;;;28.23;17.70;;;;;;;;;;5070464;28;20175;-56
2022/01/27 00:31:01;;;;;;;27.50;17.70;;;;;;;;;;5086944;28;20421;-57
2022/01/27 00:33:27;;;;;;;29.40;18.53;;;;;;;;;;5068363;28;20643;-57
2022/01/27 00:35:53;;;;;;;29.27;18.17;;;;;;;;;;5088148;28;20466;-57
2022/01/27 00:38:25;;;;;;;24.50;16.73;;;;;;;;;;5077984;28;20191;-57
2022/01/27 00:40:52;;;;;;;27.23;17.57;;;;;;;;;;5054494;28;20568;-57
2022/01/27 00:43:21;;;;;;;30.43;18.03;;;;;;;;;;5057433;28;20828;-57
2022/01/27 00:45:52;;;;;;;26.63;17.03;;;;;;;;;;5035149;28;20177;-57
2022/01/27 00:48:21;;;;;;;26.53;17.87;;;;;;;;;;5061946;28;20183;-56
2022/01/27 00:50:53;;;;;;;24.27;16.07;;;;;;;;;;5052418;28;20540;-56
2022/01/27 00:53:40;;;;;;;26.63;17.13;;;;;;;;;;5051970;28;20198;-57
2022/01/27 01:01:24;;;;;;;27.53;18.43;;;;;;;;;;5075768;28;20203;-57
2022/01/27 01:03:54;;;;;;;27.93;17.40;;;;;;;;;;5085251;28;20299;-57
2022/01/27 01:30:45;;;;;;;27.27;16.77;;;;;;;;;;5087572;28;20268;-56
2022/01/27 01:33:19;;;;;;;26.90;16.90;;;;;;;;;;5074515;28;20184;-57
2022/01/27 01:36:12;;;;;;;25.57;17.47;;;;;;;;;;5078409;28;20668;-56
2022/01/27 01:38:42;;;;;;;26.97;16.57;;;;;;;;;;5095981;28;20179;-56
2022/01/27 01:41:17;;;;;;;26.03;16.53;;;;;;;;;;5054539;28;20768;-57
2022/01/27 01:43:44;;;;;;;30.10;17.00;;;;;;;;;;5069169;28;20211;-56
2022/01/27 01:46:13;;;;;;;28.40;17.90;;;;;;;;;;5074693;28;20226;-57
2022/01/27 01:48:39;;;;;;;27.83;17.17;;;;;;;;;;5092836;28;20288;-56
2022/01/27 01:51:05;;;;;;;25.13;15.73;;;;;;;;;;5085355;28;20181;-57
2022/01/27 01:53:31;;;;;;;27.63;16.33;;;;;;;;;;5079928;28;20665;-56
2022/01/27 01:56:00;;;;;;;28.63;17.00;;;;;;;;;;5089112;28;20217;-56
2022/01/27 01:58:27;;;;;;;25.40;16.47;;;;;;;;;;5084077;28;20221;-57
2022/01/27 02:00:53;;;;;;;25.07;16.93;;;;;;;;;;5097087;28;20258;-57
2022/01/27 02:03:19;;;;;;;25.67;16.57;;;;;;;;;;5068603;28;20176;-57
2022/01/27 02:05:55;;;;;;;27.90;18.20;;;;;;;;;;5074234;28;20236;-57
2022/01/27 02:18:44;;;;;;;23.50;16.77;;;;;;;;;;5093157;28;20221;-57
2022/01/27 02:21:10;;;;;;;33.27;17.67;;;;;;;;;;5087817;28;20183;-57
2022/01/27 02:23:42;;;;;;;31.50;18.40;;;;;;;;;;5075771;28;20179;-57
2022/01/27 02:26:17;;;;;;;27.80;16.73;;;;;;;;;;5079737;28;20644;-56
2022/01/27 02:28:43;;;;;;;27.23;16.37;;;;;;;;;;5087249;28;20183;-57
2022/01/27 02:31:12;;;;;;;27.97;16.40;;;;;;;;;;5087682;28;20203;-57
2022/01/27 02:33:43;;;;;;;28.13;16.90;;;;;;;;;;5073889;28;20342;-57
2022/01/27 02:36:09;;;;;;;27.03;16.47;;;;;;;;;;5075727;28;20183;-57
2022/01/27 02:38:39;;;;;;;24.87;16.97;;;;;;;;;;5097689;28;20252;-56
2022/01/27 02:41:07;;;;;;;23.87;15.73;;;;;;;;;;5082815;28;20266;-57
2022/01/27 02:43:34;;;;;;;24.27;15.27;;;;;;;;;;5085118;28;20737;-57
2022/01/27 02:46:06;;;;;;;26.10;16.23;;;;;;;;;;5079341;28;20237;-57
2022/01/27 02:48:36;;;;;;;26.43;15.30;;;;;;;;;;5075540;28;20661;-57
2022/01/27 02:51:02;;;;;;;27.97;17.57;;;;;;;;;;5068963;28;20230;-56
2022/01/27 02:53:30;;;;;;;21.47;14.87;;;;;;;;;;5068731;28;20199;-56
2022/01/27 02:55:59;;;;;;;23.77;14.67;;;;;;;;;;5098457;28;20581;-57
2022/01/27 02:58:29;;;;;;;23.83;14.63;;;;;;;;;;5077779;28;20223;-57
2022/01/27 03:00:58;;;;;;;26.30;15.83;;;;;;;;;;5097720;28;20515;-56
2022/01/27 03:03:24;;;;;;;19.57;14.33;;;;;;;;;;5100821;28;20202;-57
2022/01/27 03:05:51;;;;;;;24.30;14.73;;;;;;;;;;5103996;28;20209;-56
2022/01/27 03:08:26;;;;;;;27.17;15.53;;;;;;;;;;5084284;28;20168;-56
2022/01/27 03:11:03;;;;;;;25.00;15.47;;;;;;;;;;5078265;28;20164;-57
2022/01/27 03:13:31;;;;;;;22.73;14.90;;;;;;;;;;5072346;28;20726;-56
2022/01/27 03:15:57;;;;;;;25.73;15.97;;;;;;;;;;5093825;28;20228;-56
2022/01/27 03:18:29;;;;;;;23.80;15.90;;;;;;;;;;5082207;28;20176;-57
2022/01/27 03:20:57;;;;;;;21.53;14.40;;;;;;;;;;5072540;28;20232;-56
2022/01/27 03:23:27;;;;;;;25.90;15.57;;;;;;;;;;5100770;28;20176;-57
2022/01/27 03:25:53;;;;;;;21.70;14.73;;;;;;;;;;5082100;28;20543;-57
2022/01/27 03:28:25;;;;;;;26.07;15.67;;;;;;;;;;5080891;28;20171;-57
2022/01/27 03:30:51;;;;;;;25.03;15.23;;;;;;;;;;5094921;28;20172;-57
2022/01/27 03:33:18;;;;;;;21.73;14.63;;;;;;;;;;5073883;28;20179;-57
2022/01/27 03:35:44;;;;;;;25.80;15.37;;;;;;;;;;5092060;28;20175;-57
2022/01/27 03:38:16;;;;;;;21.10;13.73;;;;;;;;;;5090166;28;20184;-57
2022/01/27 03:40:42;;;;;;;24.43;14.93;;;;;;;;;;5092986;28;20183;-56
2022/01/27 03:43:09;;;;;;;20.97;13.17;;;;;;;;;;5090415;28;20204;-57
2022/01/27 03:45:38;;;;;;;25.10;14.53;;;;;;;;;;5099226;28;20711;-57
2022/01/27 03:48:04;;;;;;;23.43;14.07;;;;;;;;;;5092397;28;20179;-57
2022/01/27 03:50:31;;;;;;;23.80;14.47;;;;;;;;;;5086273;28;20180;-56
2022/01/27 03:52:57;;;;;;;24.63;15.10;;;;;;;;;;5100771;28;20191;-56
2022/01/27 03:55:27;;;;;;;22.73;14.17;;;;;;;;;;5074208;28;20705;-57
2022/01/27 03:57:53;;;;;;;26.97;16.13;;;;;;;;;;5071813;28;20226;-57
2022/01/27 04:00:24;;;;;;;23.43;15.13;;;;;;;;;;5090911;28;20636;-57
2022/01/27 04:03:03;;;;;;;23.00;14.77;;;;;;;;;;5077265;28;20632;-57
2022/01/27 04:05:34;;;;;;;22.40;15.47;;;;;;;;;;5064965;28;20298;-57
2022/01/27 04:08:01;;;;;;;23.97;14.57;;;;;;;;;;5069597;28;20576;-57
2022/01/27 04:10:27;;;;;;;24.47;16.07;;;;;;;;;;5089657;28;20551;-56
2022/01/27 04:12:53;;;;;;;21.83;13.93;;;;;;;;;;5103249;28;20175;-57
2022/01/27 04:15:19;;;;;;;28.70;16.37;;;;;;;;;;5088063;28;20206;-57
2022/01/27 04:17:45;;;;;;;23.93;14.93;;;;;;;;;;5091491;28;20183;-57
2022/01/27 04:20:15;;;;;;;21.13;14.33;;;;;;;;;;5072302;28;20179;-57
2022/01/27 04:22:41;;;;;;;20.40;14.27;;;;;;;;;;5083251;28;20190;-55
2022/01/27 04:25:08;;;;;;;22.73;14.10;;;;;;;;;;5064548;28;20581;-56
2022/01/27 04:27:37;;;;;;;22.87;14.10;;;;;;;;;;5069777;28;20320;-56
2022/01/27 04:30:15;;;;;;;22.13;14.13;;;;;;;;;;5084087;28;20603;-56
2022/01/27 04:32:47;;;;;;;24.27;13.97;;;;;;;;;;5087997;28;20168;-57
2022/01/27 04:35:18;;;;;;;23.90;14.90;;;;;;;;;;5060528;28;20179;-57
2022/01/27 04:37:57;;;;;;;25.07;14.97;;;;;;;;;;5086345;28;20188;-57
2022/01/27 04:40:29;;;;;;;22.07;13.80;;;;;;;;;;5092449;28;20630;-56
2022/01/27 04:46:21;;;;;;;21.73;13.63;;;;;;;;;;5093420;28;20210;-57
2022/01/27 04:48:44;;;;;;;25.07;14.37;;;;;;;;;;5081704;28;20194;-57
2022/01/27 04:51:14;;;;;;;24.63;14.93;;;;;;;;;;5070798;28;20611;-56
2022/01/27 04:54:21;;;;;;;24.70;14.53;;;;;;;;;;5071752;28;20167;-56
2022/01/27 04:56:42;;;;;;;22.40;14.43;;;;;;;;;;5096548;28;20203;-56
2022/01/27 04:59:35;;;;;;;22.67;14.43;;;;;;;;;;5063768;28;20220;-56
2022/01/27 05:02:05;;;;;;;25.73;15.87;;;;;;;;;;5087266;28;20176;-56
2022/01/27 05:04:42;;;;;;;23.47;14.20;;;;;;;;;;5087765;28;20286;-56
2022/01/27 05:07:08;;;;;;;19.80;13.43;;;;;;;;;;5071880;28;20175;-56
2022/01/27 05:09:46;;;;;;;22.07;13.27;;;;;;;;;;5072466;28;20184;-56
2022/01/27 05:12:25;;;;;;;25.47;14.87;;;;;;;;;;5070576;28;20176;-56
2022/01/27 05:14:53;;;;;;;24.80;14.13;;;;;;;;;;5067739;28;20244;-57
2022/01/27 05:17:20;;;;;;;25.33;14.87;;;;;;;;;;5057959;28;20227;-57
2022/01/27 05:19:47;;;;;;;20.87;14.03;;;;;;;;;;5087721;28;20187;-57
2022/01/27 05:22:16;;;;;;;22.27;13.53;;;;;;;;;;5077823;28;20181;-56
2022/01/27 05:24:45;;;;;;;20.33;13.00;;;;;;;;;;5051816;28;20203;-57
2022/01/27 05:27:11;;;;;;;21.33;13.50;;;;;;;;;;5061257;28;20183;-56
2022/01/27 05:29:43;;;;;;;23.93;14.63;;;;;;;;;;5079244;28;20368;-57
2022/01/27 05:32:09;;;;;;;22.80;12.57;;;;;;;;;;5078094;28;20654;-56
2022/01/27 05:34:35;;;;;;;19.23;13.63;;;;;;;;;;5075696;28;20191;-56
2022/01/27 05:37:01;;;;;;;23.47;14.07;;;;;;;;;;5085470;28;20214;-57
2022/01/27 05:39:30;;;;;;;19.87;12.53;;;;;;;;;;5067204;28;20176;-57
2022/01/27 05:41:56;;;;;;;23.20;14.57;;;;;;;;;;5097827;28;20708;-57
2022/01/27 05:44:27;;;;;;;19.90;12.20;;;;;;;;;;5071214;28;20290;-57
2022/01/27 05:46:53;;;;;;;24.07;13.87;;;;;;;;;;5087457;28;20360;-57
2022/01/27 05:49:20;;;;;;;22.73;13.87;;;;;;;;;;5094595;28;20569;-56
2022/01/27 05:51:46;;;;;;;22.53;14.33;;;;;;;;;;5085577;28;20273;-57
2022/01/27 05:54:12;;;;;;;19.10;12.67;;;;;;;;;;5061139;28;20223;-57
2022/01/27 05:56:44;;;;;;;24.17;14.90;;;;;;;;;;5063201;28;20231;-57
2022/01/27 05:59:13;;;;;;;18.83;12.70;;;;;;;;;;5072672;28;20244;-56
2022/01/27 06:01:40;;;;;;;20.17;13.63;;;;;;;;;;5084368;28;20694;-57
2022/01/27 06:04:06;;;;;;;21.67;13.00;;;;;;;;;;5067954;28;20741;-57
2022/01/27 06:06:32;;;;;;;20.40;13.20;;;;;;;;;;5081714;28;20597;-56
2022/01/27 06:09:02;;;;;;;17.87;11.17;;;;;;;;;;5087353;28;20630;-57
2022/01/27 06:11:28;;;;;;;21.83;12.63;;;;;;;;;;5088187;28;20188;-56
2022/01/27 06:13:54;;;;;;;22.00;12.77;;;;;;;;;;5051603;28;20188;-56
2022/01/27 06:16:21;;;;;;;20.80;12.53;;;;;;;;;;5058639;28;20252;-57
2022/01/27 06:18:50;;;;;;;20.40;12.33;;;;;;;;;;5074591;28;20219;-57
2022/01/27 06:21:18;;;;;;;18.93;11.70;;;;;;;;;;5074043;28;20184;-57
2022/01/27 06:23:48;;;;;;;19.27;12.37;;;;;;;;;;5069532;28;20199;-57
2022/01/27 06:26:20;;;;;;;16.53;11.63;;;;;;;;;;5066105;28;20176;-57
2022/01/27 06:28:49;;;;;;;24.07;13.13;;;;;;;;;;5075500;28;20199;-56
2022/01/27 06:31:19;;;;;;;18.93;12.43;;;;;;;;;;5068579;28;20675;-57
2022/01/27 06:33:45;;;;;;;17.97;11.13;;;;;;;;;;5067531;28;20175;-57
2022/01/27 06:36:14;;;;;;;17.50;12.43;;;;;;;;;;5069269;28;20534;-56
2022/01/27 06:38:40;;;;;;;17.40;12.30;;;;;;;;;;5070679;28;20223;-57
2022/01/27 06:41:07;;;;;;;18.63;12.30;;;;;;;;;;5072080;28;20199;-56
2022/01/27 06:43:33;;;;;;;19.13;11.73;;;;;;;;;;5090274;28;20176;-57
2022/01/27 06:46:02;;;;;;;20.93;12.67;;;;;;;;;;5053328;28;20173;-57
2022/01/27 06:48:43;;;;;;;19.67;12.63;;;;;;;;;;5049761;28;20563;-57
2022/01/27 06:51:12;;;;;;;20.43;11.83;;;;;;;;;;5090273;28;20187;-57
2022/01/27 06:53:41;;;;;;;19.00;12.40;;;;;;;;;;5072180;28;20322;-57
2022/01/27 06:56:08;;;;;;;20.90;12.27;;;;;;;;;;5090971;28;20303;-57
2022/01/27 06:58:36;;;;;;;19.17;12.83;;;;;;;;;;5076107;28;20223;-56
2022/01/27 07:01:02;;;;;;;22.73;12.70;;;;;;;;;;5086714;28;20527;-57
2022/01/27 07:03:28;;;;;;;19.77;11.23;;;;;;;;;;5089694;28;20389;-57
2022/01/27 07:05:54;;;;;;;16.53;10.70;;;;;;;;;;5088866;28;20200;-58
2022/01/27 07:08:21;;;;;;;19.83;12.43;;;;;;;;;;5086714;28;20221;-57
2022/01/27 07:10:47;;;;;;;17.27;11.03;;;;;;;;;;5071007;28;20172;-57
2022/01/27 07:13:14;;;;;;;20.43;12.07;;;;;;;;;;5066558;28;20188;-57
2022/01/27 07:15:43;;;;;;;19.50;12.67;;;;;;;;;;5072476;28;20236;-57
2022/01/27 07:18:12;;;;;;;16.80;12.07;;;;;;;;;;5069594;28;20188;-57
2022/01/27 07:20:42;;;;;;;19.67;11.73;;;;;;;;;;5071736;28;20291;-57
2022/01/27 07:23:09;;;;;;;19.43;11.63;;;;;;;;;;5086251;28;20179;-57
2022/01/27 07:25:38;;;;;;;19.97;12.97;;;;;;;;;;5072820;28;20248;-57
2022/01/27 07:28:04;;;;;;;20.90;10.73;;;;;;;;;;5089448;28;20647;-57
2022/01/27 07:30:31;;;;;;;17.13;11.47;;;;;;;;;;5088777;28;20168;-57
2022/01/27 07:33:00;;;;;;;21.77;12.23;;;;;;;;;;5080924;28;20176;-56
2022/01/27 07:35:31;;;;;;;20.50;12.83;;;;;;;;;;5069446;28;20187;-57
2022/01/27 07:37:57;;;;;;;19.87;11.80;;;;;;;;;;5063619;28;20654;-57
2022/01/27 07:40:23;;;;;;;17.43;11.53;;;;;;;;;;5070494;28;20210;-57
2022/01/27 07:42:49;;;;;;;21.60;12.93;;;;;;;;;;5072219;28;20175;-57
2022/01/27 07:45:16;;;;;;;20.90;12.30;;;;;;;;;;5064715;28;20204;-57
2022/01/27 07:47:42;;;;;;;19.20;13.07;;;;;;;;;;5065782;28;20188;-57
2022/01/27 07:50:16;;;;;;;22.13;12.77;;;;;;;;;;5078624;28;20233;-57
2022/01/27 07:52:42;;;;;;;18.87;13.00;;;;;;;;;;5073748;28;20557;-57
2022/01/27 07:55:14;;;;;;;21.37;12.90;;;;;;;;;;5080641;28;20609;-57
2022/01/27 07:57:40;;;;;;;22.93;13.93;;;;;;;;;;5079963;28;20223;-57
2022/01/27 08:00:09;;;;;;;22.03;12.63;;;;;;;;;;5083799;28;20180;-57
2022/01/27 08:02:36;;;;;;;22.37;13.20;;;;;;;;;;5054633;28;20207;-57
2022/01/27 08:05:08;;;;;;;20.77;13.07;;;;;;;;;;5063448;28;20554;-57
2022/01/27 08:07:37;;;;;;;21.57;13.93;;;;;;;;;;5050399;28;20185;-56
2022/01/27 08:10:03;;;;;;;21.60;14.00;;;;;;;;;;5074958;28;20701;-57
2022/01/27 08:12:33;;;;;;;25.87;14.43;;;;;;;;;;5063792;28;20900;-56
2022/01/27 08:15:01;;;;;;;22.97;13.60;;;;;;;;;;5061272;28;20243;-57
2022/01/27 08:17:29;;;;;;;24.60;14.30;;;;;;;;;;5085949;28;20180;-57
2022/01/27 08:19:56;;;;;;;28.27;15.30;;;;;;;;;;5088266;28;20248;-57
2022/01/27 08:22:25;;;;;;;21.80;13.97;;;;;;;;;;5072692;28;20181;-57
2022/01/27 08:24:51;;;;;;;23.13;13.97;;;;;;;;;;5071455;28;20663;-57
2022/01/27 08:27:27;;;;;;;24.43;14.87;;;;;;;;;;5078368;28;20266;-57
2022/01/27 08:30:01;;;;;;;26.70;14.20;;;;;;;;;;5088803;28;20244;-57
2022/01/27 08:32:34;;;;;;;25.73;14.90;;;;;;;;;;5084333;28;20172;-57
2022/01/27 08:35:02;;;;;;;26.17;16.13;;;;;;;;;;5069828;28;20202;-57
2022/01/27 08:37:29;;;;;;;25.60;14.93;;;;;;;;;;5087861;28;20175;-57
2022/01/27 08:39:55;;;;;;;25.37;16.23;;;;;;;;;;5077048;28;20644;-57
2022/01/27 08:42:21;;;;;;;25.93;14.90;;;;;;;;;;5068510;28;20176;-57
2022/01/27 08:44:48;;;;;;;25.27;15.10;;;;;;;;;;5088461;28;20198;-57
2022/01/27 08:47:15;;;;;;;24.67;15.40;;;;;;;;;;5087507;28;20172;-57
2022/01/27 08:49:52;;;;;;;27.23;15.07;;;;;;;;;;5086548;28;20233;-57
2022/01/27 08:52:18;;;;;;;24.97;14.17;;;;;;;;;;5068667;28;20179;-56
2022/01/27 08:54:46;;;;;;;24.70;16.13;;;;;;;;;;5070634;28;20214;-57
2022/01/27 08:57:13;;;;;;;26.37;15.50;;;;;;;;;;5080730;28;20744;-56
2022/01/27 08:59:39;;;;;;;25.73;15.17;;;;;;;;;;5067151;28;20168;-57
2022/01/27 09:02:05;;;;;;;29.70;15.67;;;;;;;;;;5067078;28;20231;-57
2022/01/27 09:04:31;;;;;;;27.00;15.67;;;;;;;;;;5047908;28;20752;-56
2022/01/27 09:06:58;;;;;;;25.00;15.27;;;;;;;;;;5066663;28;20585;-56
2022/01/27 09:09:24;;;;;;;24.07;14.93;;;;;;;;;;5050066;28;20414;-56
2022/01/27 09:11:51;;;;;;;24.63;15.47;;;;;;;;;;5065614;28;20182;-56
2022/01/27 09:14:20;;;;;;;26.60;15.93;;;;;;;;;;5049671;28;20247;-56
2022/01/27 09:16:47;;;;;;;24.87;16.43;;;;;;;;;;5049150;28;20191;-56
2022/01/27 09:19:13;;;;;;;26.93;15.20;;;;;;;;;;5066662;28;20531;-56
2022/01/27 09:21:48;;;;;;;30.93;17.37;;;;;;;;;;5067140;28;20599;-57
2022/01/27 09:24:17;;;;;;;26.70;16.20;;;;;;;;;;5067232;28;20268;-57
2022/01/27 09:29:13;;;;;;;24.63;15.50;;;;;;;;;;5067262;28;20704;-57
2022/01/27 09:31:40;;;;;;;25.27;16.07;;;;;;;;;;5066501;28;20177;-57
2022/01/27 09:34:10;;;;;;;28.20;16.73;;;;;;;;;;5066403;28;20200;-57
2022/01/27 09:36:40;;;;;;;28.60;16.07;;;;;;;;;;5067214;28;20164;-57
2022/01/27 09:39:06;;;;;;;28.53;16.67;;;;;;;;;;5049220;28;20396;-57
2022/01/27 09:41:44;;;;;;;23.93;15.43;;;;;;;;;;5067044;28;20214;-57
2022/01/27 09:44:13;;;;;;;27.60;16.00;;;;;;;;;;5049319;28;20200;-58
2022/01/27 09:46:43;;;;;;;30.33;16.47;;;;;;;;;;5051502;28;20177;-58
2022/01/27 09:49:18;;;;;;;24.70;16.77;;;;;;;;;;5045176;28;20180;-58
2022/01/27 09:51:46;;;;;;;27.73;15.87;;;;;;;;;;5066521;28;20179;-58
2022/01/27 09:54:13;;;;;;;23.37;15.97;;;;;;;;;;5065867;28;20196;-58
2022/01/27 09:56:43;;;;;;;30.13;16.70;;;;;;;;;;5048627;28;20575;-58
2022/01/27 09:59:12;;;;;;;24.77;15.60;;;;;;;;;;5044663;28;20231;-58
2022/01/27 10:01:54;;;;;;;27.43;16.77;;;;;;;;;;5069042;28;20192;-58
2022/01/27 10:04:28;;;;;;;24.37;14.17;;;;;;;;;;5067805;28;20245;-58
2022/01/27 10:07:00;;;;;;;21.27;14.67;;;;;;;;;;5080685;28;20619;-58
2022/01/27 10:09:30;;;;;;;25.33;15.03;;;;;;;;;;5067867;28;20183;-57
2022/01/27 10:12:07;;;;;;;25.00;16.03;;;;;;;;;;5098643;28;20233;-57
2022/01/27 10:14:40;;;;;;;22.83;14.37;;;;;;;;;;5073328;28;20180;-58
2022/01/27 10:17:15;;;;;;;21.60;14.30;;;;;;;;;;5084358;28;20191;-58
2022/01/27 10:19:41;;;;;;;22.50;14.80;;;;;;;;;;5063219;28;20206;-58
2022/01/27 10:22:15;;;;;;;26.17;14.90;;;;;;;;;;5073124;28;20187;-58
2022/01/27 10:24:42;;;;;;;21.13;14.83;;;;;;;;;;5071308;28;20820;-57
2022/01/27 10:27:45;;;;;;;21.63;14.13;;;;;;;;;;5093318;28;20180;-58
2022/01/27 10:32:55;;;;;;;22.53;15.23;;;;;;;;;;5098687;28;20567;-58
2022/01/27 10:35:30;;;;;;;22.43;15.20;;;;;;;;;;5074170;28;20179;-58
2022/01/27 10:37:59;;;;;;;21.13;16.07;;;;;;;;;;5081163;28;20175;-58
2022/01/27 10:40:33;;;;;;;21.63;14.43;;;;;;;;;;5092378;28;20248;-58
2022/01/27 10:43:00;;;;;;;21.67;14.80;;;;;;;;;;5099289;28;20182;-58
2022/01/27 10:45:29;;;;;;;23.87;15.17;;;;;;;;;;5069718;28;20560;-58
2022/01/27 10:48:14;;;;;;;21.87;14.57;;;;;;;;;;5088335;28;20650;-58
2022/01/27 10:51:08;;;;;;;20.60;14.90;;;;;;;;;;5077396;28;20660;-58
2022/01/27 10:53:48;;;;;;;27.20;14.50;;;;;;;;;;5069916;28;20275;-58
2022/01/27 10:56:19;;;;;;;22.47;15.37;;;;;;;;;;5071015;28;20261;-59
2022/01/27 10:58:45;;;;;;;18.43;12.93;;;;;;;;;;5089860;28;20720;-59
2022/01/27 11:01:21;;;;;;;21.20;14.33;;;;;;;;;;5072050;28;20377;-59
2022/01/27 11:03:52;;;;;;;19.93;14.30;;;;;;;;;;5088144;28;20175;-59
2022/01/27 11:06:30;;;;;;;18.87;13.33;;;;;;;;;;5088949;28;20190;-58
2022/01/27 11:08:58;;;;;;;22.20;13.30;;;;;;;;;;5089926;28;20160;-59
2022/01/27 11:11:26;;;;;;;17.00;13.33;;;;;;;;;;5089793;28;20183;-59
2022/01/27 11:13:59;;;;;;;16.00;12.20;;;;;;;;;;5071327;28;20215;-59
2022/01/27 11:16:34;;;;;;;18.70;12.67;;;;;;;;;;5078594;28;20176;-59
2022/01/27 11:19:33;;;;;;;17.27;12.00;;;;;;;;;;5054690;28;20252;-59
2022/01/27 11:22:12;;;;;;;17.83;11.63;;;;;;;;;;5088532;28;20262;-59
2022/01/27 11:27:22;;;;;;;14.53;10.93;;;;;;;;;;5077887;28;20706;-59
2022/01/27 11:30:07;;;;;;;15.00;10.43;;;;;;;;;;5071447;28;20172;-58
2022/01/27 11:32:46;;;;;;;14.73;9.63;;;;;;;;;;5070747;28;20190;-57
2022/01/27 11:35:23;;;;;;;15.83;10.87;;;;;;;;;;5072276;28;20274;-57
2022/01/27 11:38:00;;;;;;;12.37;9.53;;;;;;;;;;5073736;28;20187;-58
2022/01/27 11:40:37;;;;;;;15.20;9.93;;;;;;;;;;5070308;28;20494;-57
2022/01/27 11:43:06;;;;;;;12.27;8.80;;;;;;;;;;5089530;28;20516;-57
2022/01/27 11:45:43;;;;;;;12.80;9.53;;;;;;;;;;5074350;28;20668;-57
2022/01/27 11:48:18;;;;;;;15.13;10.37;;;;;;;;;;5070151;28;20673;-57
2022/01/27 11:50:54;;;;;;;12.47;10.60;;;;;;;;;;5071620;28;20211;-57
2022/01/27 11:53:45;;;;;;;14.00;10.47;;;;;;;;;;5070917;28;20167;-57
2022/01/27 11:56:27;;;;;;;13.87;10.67;;;;;;;;;;5084154;28;20257;-57
2022/01/27 11:58:54;;;;;;;14.93;10.13;;;;;;;;;;5067583;28;20478;-57
2022/01/27 12:01:28;;;;;;;12.73;10.33;;;;;;;;;;5071265;28;20934;-57
2022/01/27 12:04:07;;;;;;;14.53;10.10;;;;;;;;;;5069482;28;20187;-57
2022/01/27 12:06:33;;;;;;;15.90;10.73;;;;;;;;;;5087595;28;20600;-57
2022/01/27 12:09:21;;;;;;;15.30;10.37;;;;;;;;;;5070456;28;20647;-57
2022/01/27 12:11:53;;;;;;;16.47;10.97;;;;;;;;;;5081481;28;20172;-57
2022/01/27 12:14:25;;;;;;;18.23;11.53;;;;;;;;;;5086936;28;20180;-57
2022/01/27 12:17:09;;;;;;;14.80;11.37;;;;;;;;;;5088111;28;20168;-56
2022/01/27 12:19:49;;;;;;;14.87;10.23;;;;;;;;;;5088291;28;20643;-57
2022/01/27 12:22:16;;;;;;;17.50;11.17;;;;;;;;;;5088042;28;20221;-57
2022/01/27 12:25:12;;;;;;;19.37;13.13;;;;;;;;;;5088181;28;20241;-57
2022/01/27 12:27:39;;;;;;;16.70;11.77;;;;;;;;;;5056175;28;20188;-57
2022/01/27 12:30:09;;;;;;;18.53;12.20;;;;;;;;;;5070521;28;20167;-58
2022/01/27 12:32:35;;;;;;;19.63;13.33;;;;;;;;;;5069522;28;20176;-57
2022/01/27 12:35:26;;;;;;;16.43;11.60;;;;;;;;;;5068505;28;20703;-56
2022/01/27 12:37:55;;;;;;;15.10;11.47;;;;;;;;;;5077315;28;20586;-57
2022/01/27 12:40:42;;;;;;;17.43;11.60;;;;;;;;;;5071842;28;20263;-58
2022/01/27 12:43:15;;;;;;;18.13;12.20;;;;;;;;;;5077472;28;20221;-57
2022/01/27 12:45:44;;;;;;;18.73;13.97;;;;;;;;;;5068793;28;20245;-58
2022/01/27 12:48:14;;;;;;;17.50;11.77;;;;;;;;;;5075248;28;20196;-57
2022/01/27 12:50:47;;;;;;;17.07;11.50;;;;;;;;;;5075680;28;20217;-57
2022/01/27 12:53:14;;;;;;;13.87;11.77;;;;;;;;;;5087436;28;20642;-58
2022/01/27 12:55:42;;;;;;;14.70;10.67;;;;;;;;;;5070223;28;20182;-57
2022/01/27 12:58:17;;;;;;;14.57;11.03;;;;;;;;;;5085593;28;20219;-57
2022/01/27 13:00:44;;;;;;;16.47;11.60;;;;;;;;;;5086883;28;20168;-57
2022/01/27 13:03:10;;;;;;;19.67;11.90;;;;;;;;;;5067609;28;20681;-57
2022/01/27 13:05:40;;;;;;;17.17;10.87;;;;;;;;;;5095865;28;20304;-58
2022/01/27 13:08:11;;;;;;;16.00;11.00;;;;;;;;;;5064523;28;20817;-56
2022/01/27 13:10:46;;;;;;;14.20;10.10;;;;;;;;;;5073417;28;20183;-57
2022/01/27 13:13:34;;;;;;;14.13;11.03;;;;;;;;;;5085767;28;20460;-57
2022/01/27 13:16:07;;;;;;;14.63;10.73;;;;;;;;;;5068789;28;20270;-57
2022/01/27 13:21:18;;;;;;;17.57;10.90;;;;;;;;;;5099180;28;20693;-56
2022/01/27 13:23:47;;;;;;;11.63;9.63;;;;;;;;;;5069980;28;20553;-56
2022/01/27 13:26:16;;;;;;;15.40;9.40;;;;;;;;;;5069411;28;20216;-57
2022/01/27 13:28:45;;;;;;;12.27;9.57;;;;;;;;;;5068917;28;20656;-56
2022/01/27 13:31:14;;;;;;;11.63;9.53;;;;;;;;;;5070395;28;20182;-56
2022/01/27 13:33:41;;;;;;;15.60;9.80;;;;;;;;;;5083497;28;20679;-57
2022/01/27 13:36:20;;;;;;;10.37;8.63;;;;;;;;;;5088093;28;20207;-56
2022/01/27 13:39:09;;;;;;;9.90;8.77;;;;;;;;;;5067410;28;20692;-56
2022/01/27 13:41:39;;;;;;;13.33;9.17;;;;;;;;;;5082947;28;20519;-57
2022/01/27 13:44:13;;;;;;;13.17;9.50;;;;;;;;;;5078959;28;20183;-56
2022/01/27 13:46:59;;;;;;;13.63;10.30;;;;;;;;;;5075446;28;20187;-56
2022/01/27 13:49:29;;;;;;;11.60;9.17;;;;;;;;;;5068891;28;20194;-56
2022/01/27 13:51:58;;;;;;;12.13;9.60;;;;;;;;;;5081567;28;20212;-57
2022/01/27 13:54:44;;;;;;;11.47;9.87;;;;;;;;;;5079150;28;20187;-56
2022/01/27 13:57:17;;;;;;;14.20;9.83;;;;;;;;;;5068279;28;20217;-57
2022/01/27 13:59:56;;;;;;;15.97;10.50;;;;;;;;;;5075861;28;20180;-57
2022/01/27 14:02:24;;;;;;;12.33;10.53;;;;;;;;;;5066778;28;20187;-56
2022/01/27 14:04:51;;;;;;;13.77;11.57;;;;;;;;;;5044844;28;20216;-57
2022/01/27 14:07:44;;;;;;;14.93;12.17;;;;;;;;;;5084897;28;20180;-57
2022/01/27 14:10:23;;;;;;;14.03;11.03;;;;;;;;;;5068254;28;20659;-56
2022/01/27 14:12:56;;;;;;;14.27;11.23;;;;;;;;;;5080480;28;20163;-57
2022/01/27 14:15:30;;;;;;;18.20;11.20;;;;;;;;;;5058383;28;20180;-56
2022/01/27 14:17:57;;;;;;;18.73;13.07;;;;;;;;;;5048116;28;20196;-56
2022/01/27 14:20:30;;;;;;;16.50;13.03;;;;;;;;;;5067334;28;20238;-56
2022/01/27 14:23:12;;;;;;;16.20;12.20;;;;;;;;;;5056701;28;20287;-56
2022/01/27 14:25:49;;;;;;;17.13;12.63;;;;;;;;;;5075130;28;20210;-56
2022/01/27 14:28:15;;;;;;;17.40;13.57;;;;;;;;;;5048458;28;20539;-56
2022/01/27 14:30:44;;;;;;;15.60;13.00;;;;;;;;;;5055774;28;20196;-56
2022/01/27 14:33:14;;;;;;;16.83;14.17;;;;;;;;;;5054823;28;20184;-56
2022/01/27 14:35:42;;;;;;;19.10;13.90;;;;;;;;;;5070731;28;20216;-57
2022/01/27 14:38:09;;;;;;;19.67;13.27;;;;;;;;;;5070154;28;20199;-56
2022/01/27 14:40:39;;;;;;;18.43;14.23;;;;;;;;;;5053463;28;20506;-56
2022/01/27 14:43:08;;;;;;;20.87;13.50;;;;;;;;;;5067617;28;20198;-57
2022/01/27 14:45:35;;;;;;;21.33;15.33;;;;;;;;;;5067465;28;20219;-57
2022/01/27 14:48:03;;;;;;;18.00;14.73;;;;;;;;;;5053855;28;20603;-57
2022/01/27 14:50:39;;;;;;;22.63;14.87;;;;;;;;;;5063264;28;20224;-56
2022/01/27 14:53:07;;;;;;;20.47;16.03;;;;;;;;;;5063097;28;20750;-57
2022/01/27 14:55:36;;;;;;;21.00;15.03;;;;;;;;;;5082325;28;20179;-57
2022/01/27 14:58:02;;;;;;;16.83;14.33;;;;;;;;;;5084189;28;20322;-57
2022/01/27 15:00:28;;;;;;;22.30;15.97;;;;;;;;;;5072220;28;20177;-57
2022/01/27 15:02:54;;;;;;;21.73;15.87;;;;;;;;;;5050801;28;20232;-57
2022/01/27 15:05:21;;;;;;;21.73;15.83;;;;;;;;;;5081573;28;20269;-58
2022/01/27 15:07:50;;;;;;;23.07;15.63;;;;;;;;;;5072089;28;20577;-57
2022/01/27 15:10:22;;;;;;;19.67;15.47;;;;;;;;;;5072072;28;20686;-57
2022/01/27 15:12:49;;;;;;;21.83;14.87;;;;;;;;;;5073549;28;20260;-57
2022/01/27 15:20:45;;;;;;;21.13;16.13;;;;;;;;;;5079699;28;20178;-57
2022/01/27 15:23:13;;;;;;;24.20;15.57;;;;;;;;;;5090886;28;20211;-57
2022/01/27 15:25:44;;;;;;;20.47;15.30;;;;;;;;;;5089239;28;20705;-58
2022/01/27 15:28:11;;;;;;;23.10;17.07;;;;;;;;;;5067167;28;20179;-58
2022/01/27 15:30:43;;;;;;;21.07;14.60;;;;;;;;;;5070855;28;20192;-58
2022/01/27 15:33:11;;;;;;;23.53;16.33;;;;;;;;;;5097316;28;20176;-57
2022/01/27 15:35:44;;;;;;;23.50;16.40;;;;;;;;;;5065794;28;20746;-58
2022/01/27 15:38:10;;;;;;;21.27;15.60;;;;;;;;;;5094303;28;20254;-58
2022/01/27 15:40:39;;;;;;;26.60;16.13;;;;;;;;;;5095938;28;20222;-58
2022/01/27 15:43:06;;;;;;;20.30;16.03;;;;;;;;;;5070931;28;20194;-58
2022/01/27 15:45:41;;;;;;;22.57;14.87;;;;;;;;;;5073213;28;20291;-58